sensor_id;sensor_type;location;lat;lon;timestamp;P1;durP1;ratioP1;P2;durP2;ratioP2
31638;SDS011;18248;51.522;7.020;2022-08-02T00:00:33;8.65;;;3.10;;
31638;SDS011;18248;51.522;7.020;2022-08-02T00:03:32;6.22;;;3.00;;
31638;SDS011;18248;51.522;7.020;2022-08-02T00:06:30;11.25;;;3.38;;
31638;SDS011;18248;51.522;7.020;2022-08-02T00:09:29;8.93;;;3.55;;
31638;SDS011;18248;51.522;7.020;2022-08-02T00:12:28;12.68;;;3.88;;
31638;SDS011;18248;51.522;7.020;2022-08-02T00:15:27;9.15;;;3.45;;
31638;SDS011;18248;51.522;7.020;2022-08-02T00:18:25;8.73;;;3.30;;
31638;SDS011;18248;51.522;7.020;2022-08-02T00:21:24;8.63;;;3.65;;
31638;SDS011;18248;51.522;7.020;2022-08-02T00:24:23;14.88;;;4.95;;
31638;SDS011;18248;51.522;7.020;2022-08-02T00:27:22;9.00;;;3.17;;
31638;SDS011;18248;51.522;7.020;2022-08-02T00:30:20;11.23;;;3.50;;
31638;SDS011;18248;51.522;7.020;2022-08-02T00:33:19;12.05;;;3.63;;
31638;SDS011;18248;51.522;7.020;2022-08-02T00:36:17;6.53;;;3.50;;
31638;SDS011;18248;51.522;7.020;2022-08-02T00:39:16;11.00;;;4.00;;
31638;SDS011;18248;51.522;7.020;2022-08-02T00:42:15;10.60;;;4.55;;
31638;SDS011;18248;51.522;7.020;2022-08-02T00:45:13;13.88;;;4.50;;
31638;SDS011;18248;51.522;7.020;2022-08-02T00:48:12;5.40;;;3.22;;
31638;SDS011;18248;51.522;7.020;2022-08-02T00:51:11;9.32;;;3.55;;
31638;SDS011;18248;51.522;7.020;2022-08-02T00:54:10;8.13;;;4.13;;
31638;SDS011;18248;51.522;7.020;2022-08-02T00:57:09;6.93;;;3.30;;
31638;SDS011;18248;51.522;7.020;2022-08-02T01:00:08;5.13;;;2.90;;
31638;SDS011;18248;51.522;7.020;2022-08-02T01:03:07;6.45;;;3.33;;
31638;SDS011;18248;51.522;7.020;2022-08-02T01:06:05;8.90;;;3.72;;
31638;SDS011;18248;51.522;7.020;2022-08-02T01:09:04;9.48;;;3.78;;
31638;SDS011;18248;51.522;7.020;2022-08-02T01:12:04;7.80;;;3.85;;
31638;SDS011;18248;51.522;7.020;2022-08-02T01:15:08;8.40;;;4.32;;
31638;SDS011;18248;51.522;7.020;2022-08-02T01:18:09;7.07;;;3.45;;
31638;SDS011;18248;51.522;7.020;2022-08-02T01:24:55;7.90;;;4.07;;
31638;SDS011;18248;51.522;7.020;2022-08-02T01:28:29;8.02;;;3.97;;
31638;SDS011;18248;51.522;7.020;2022-08-02T01:31:29;10.55;;;4.15;;
31638;SDS011;18248;51.522;7.020;2022-08-02T01:34:40;9.82;;;4.35;;
31638;SDS011;18248;51.522;7.020;2022-08-02T01:37:55;11.38;;;4.32;;
31638;SDS011;18248;51.522;7.020;2022-08-02T01:40:59;11.55;;;3.33;;
31638;SDS011;18248;51.522;7.020;2022-08-02T01:43:59;12.15;;;5.05;;
31638;SDS011;18248;51.522;7.020;2022-08-02T01:47:01;9.48;;;4.07;;
31638;SDS011;18248;51.522;7.020;2022-08-02T01:50:04;5.15;;;3.28;;
31638;SDS011;18248;51.522;7.020;2022-08-02T01:53:05;11.20;;;3.75;;
31638;SDS011;18248;51.522;7.020;2022-08-02T01:56:06;9.55;;;4.80;;
31638;SDS011;18248;51.522;7.020;2022-08-02T01:59:05;7.22;;;3.80;;
31638;SDS011;18248;51.522;7.020;2022-08-02T02:02:07;9.38;;;3.83;;
31638;SDS011;18248;51.522;7.020;2022-08-02T02:05:06;6.32;;;3.90;;
31638;SDS011;18248;51.522;7.020;2022-08-02T02:08:09;9.50;;;3.70;;
31638;SDS011;18248;51.522;7.020;2022-08-02T02:11:10;9.32;;;3.70;;
31638;SDS011;18248;51.522;7.020;2022-08-02T02:14:08;7.93;;;3.90;;
31638;SDS011;18248;51.522;7.020;2022-08-02T02:17:09;6.60;;;3.80;;
31638;SDS011;18248;51.522;7.020;2022-08-02T02:20:14;11.60;;;4.72;;
31638;SDS011;18248;51.522;7.020;2022-08-02T02:23:15;13.43;;;4.57;;
31638;SDS011;18248;51.522;7.020;2022-08-02T02:26:14;8.63;;;4.60;;
31638;SDS011;18248;51.522;7.020;2022-08-02T02:29:14;8.40;;;5.07;;
31638;SDS011;18248;51.522;7.020;2022-08-02T02:32:14;10.23;;;4.18;;
31638;SDS011;18248;51.522;7.020;2022-08-02T02:35:13;12.23;;;4.57;;
31638;SDS011;18248;51.522;7.020;2022-08-02T02:38:15;10.48;;;4.18;;
31638;SDS011;18248;51.522;7.020;2022-08-02T02:41:16;13.35;;;4.68;;
31638;SDS011;18248;51.522;7.020;2022-08-02T02:44:18;7.77;;;3.63;;
31638;SDS011;18248;51.522;7.020;2022-08-02T02:47:18;6.13;;;3.35;;
31638;SDS011;18248;51.522;7.020;2022-08-02T02:50:19;7.57;;;3.95;;
31638;SDS011;18248;51.522;7.020;2022-08-02T02:53:19;10.82;;;4.55;;
31638;SDS011;18248;51.522;7.020;2022-08-02T02:56:18;7.65;;;4.50;;
31638;SDS011;18248;51.522;7.020;2022-08-02T02:59:18;8.30;;;4.22;;
31638;SDS011;18248;51.522;7.020;2022-08-02T03:02:17;9.48;;;3.70;;
31638;SDS011;18248;51.522;7.020;2022-08-02T03:05:18;6.32;;;3.47;;
31638;SDS011;18248;51.522;7.020;2022-08-02T03:08:16;12.88;;;3.97;;
31638;SDS011;18248;51.522;7.020;2022-08-02T03:11:15;8.15;;;3.60;;
31638;SDS011;18248;51.522;7.020;2022-08-02T03:14:14;6.75;;;3.95;;
31638;SDS011;18248;51.522;7.020;2022-08-02T03:17:13;7.85;;;3.67;;
31638;SDS011;18248;51.522;7.020;2022-08-02T03:20:15;12.38;;;4.13;;
31638;SDS011;18248;51.522;7.020;2022-08-02T03:23:16;6.10;;;2.75;;
31638;SDS011;18248;51.522;7.020;2022-08-02T03:26:15;10.27;;;3.72;;
31638;SDS011;18248;51.522;7.020;2022-08-02T03:29:14;6.97;;;4.38;;
31638;SDS011;18248;51.522;7.020;2022-08-02T03:32:12;7.75;;;3.38;;
31638;SDS011;18248;51.522;7.020;2022-08-02T03:35:12;8.23;;;3.47;;
31638;SDS011;18248;51.522;7.020;2022-08-02T03:38:12;8.30;;;4.75;;
31638;SDS011;18248;51.522;7.020;2022-08-02T03:41:14;11.80;;;5.30;;
31638;SDS011;18248;51.522;7.020;2022-08-02T03:44:14;5.50;;;3.70;;
31638;SDS011;18248;51.522;7.020;2022-08-02T03:47:14;10.05;;;3.70;;
31638;SDS011;18248;51.522;7.020;2022-08-02T03:50:14;9.13;;;3.90;;
31638;SDS011;18248;51.522;7.020;2022-08-02T03:53:15;8.40;;;3.22;;
31638;SDS011;18248;51.522;7.020;2022-08-02T03:56:16;6.00;;;3.22;;
31638;SDS011;18248;51.522;7.020;2022-08-02T03:59:15;6.75;;;3.75;;
31638;SDS011;18248;51.522;7.020;2022-08-02T04:02:13;7.45;;;3.72;;
31638;SDS011;18248;51.522;7.020;2022-08-02T04:05:12;7.55;;;3.40;;
31638;SDS011;18248;51.522;7.020;2022-08-02T04:08:11;10.07;;;3.92;;
31638;SDS011;18248;51.522;7.020;2022-08-02T04:11:10;4.80;;;3.05;;
31638;SDS011;18248;51.522;7.020;2022-08-02T04:14:27;6.55;;;3.55;;
31638;SDS011;18248;51.522;7.020;2022-08-02T04:17:26;15.68;;;4.25;;
31638;SDS011;18248;51.522;7.020;2022-08-02T04:20:30;7.65;;;5.28;;
31638;SDS011;18248;51.522;7.020;2022-08-02T04:23:30;8.02;;;4.43;;
31638;SDS011;18248;51.522;7.020;2022-08-02T04:26:32;8.40;;;4.15;;
31638;SDS011;18248;51.522;7.020;2022-08-02T04:29:33;7.50;;;4.35;;
31638;SDS011;18248;51.522;7.020;2022-08-02T04:32:35;6.57;;;3.67;;
31638;SDS011;18248;51.522;7.020;2022-08-02T04:35:34;8.43;;;3.78;;
31638;SDS011;18248;51.522;7.020;2022-08-02T04:38:33;6.82;;;4.35;;
31638;SDS011;18248;51.522;7.020;2022-08-02T04:41:40;7.82;;;3.80;;
31638;SDS011;18248;51.522;7.020;2022-08-02T04:44:39;7.75;;;3.80;;
31638;SDS011;18248;51.522;7.020;2022-08-02T04:47:38;5.78;;;3.75;;
31638;SDS011;18248;51.522;7.020;2022-08-02T04:50:36;10.68;;;4.28;;
31638;SDS011;18248;51.522;7.020;2022-08-02T04:53:35;9.35;;;5.10;;
31638;SDS011;18248;51.522;7.020;2022-08-02T04:56:34;7.85;;;4.22;;
31638;SDS011;18248;51.522;7.020;2022-08-02T04:59:32;8.70;;;4.38;;
31638;SDS011;18248;51.522;7.020;2022-08-02T05:02:31;5.70;;;3.70;;
31638;SDS011;18248;51.522;7.020;2022-08-02T05:05:29;8.07;;;5.55;;
31638;SDS011;18248;51.522;7.020;2022-08-02T05:08:30;9.30;;;4.35;;
31638;SDS011;18248;51.522;7.020;2022-08-02T05:11:28;16.10;;;5.70;;
31638;SDS011;18248;51.522;7.020;2022-08-02T05:14:27;11.32;;;4.20;;
31638;SDS011;18248;51.522;7.020;2022-08-02T05:17:26;8.35;;;5.90;;
31638;SDS011;18248;51.522;7.020;2022-08-02T05:20:24;8.85;;;5.13;;
31638;SDS011;18248;51.522;7.020;2022-08-02T05:23:23;12.50;;;5.80;;
31638;SDS011;18248;51.522;7.020;2022-08-02T05:26:22;8.48;;;5.50;;
31638;SDS011;18248;51.522;7.020;2022-08-02T05:29:20;12.68;;;6.03;;
31638;SDS011;18248;51.522;7.020;2022-08-02T05:32:20;7.75;;;4.13;;
31638;SDS011;18248;51.522;7.020;2022-08-02T05:35:19;8.43;;;4.80;;
31638;SDS011;18248;51.522;7.020;2022-08-02T05:38:18;9.25;;;4.95;;
31638;SDS011;18248;51.522;7.020;2022-08-02T05:41:18;13.85;;;6.07;;
31638;SDS011;18248;51.522;7.020;2022-08-02T05:44:17;14.95;;;6.03;;
31638;SDS011;18248;51.522;7.020;2022-08-02T05:47:16;10.57;;;4.88;;
31638;SDS011;18248;51.522;7.020;2022-08-02T05:50:14;10.02;;;5.60;;
31638;SDS011;18248;51.522;7.020;2022-08-02T05:53:16;9.98;;;5.30;;
31638;SDS011;18248;51.522;7.020;2022-08-02T05:56:27;13.65;;;5.78;;
31638;SDS011;18248;51.522;7.020;2022-08-02T05:59:51;12.40;;;6.13;;
31638;SDS011;18248;51.522;7.020;2022-08-02T06:06:23;8.63;;;4.73;;
31638;SDS011;18248;51.522;7.020;2022-08-02T06:09:24;15.77;;;6.63;;
31638;SDS011;18248;51.522;7.020;2022-08-02T06:12:24;13.40;;;5.95;;
31638;SDS011;18248;51.522;7.020;2022-08-02T06:15:26;9.95;;;5.18;;
31638;SDS011;18248;51.522;7.020;2022-08-02T06:18:26;12.07;;;4.57;;
31638;SDS011;18248;51.522;7.020;2022-08-02T06:21:26;11.38;;;3.80;;
31638;SDS011;18248;51.522;7.020;2022-08-02T06:24:25;7.72;;;3.78;;
31638;SDS011;18248;51.522;7.020;2022-08-02T06:27:25;6.40;;;2.75;;
31638;SDS011;18248;51.522;7.020;2022-08-02T06:30:25;10.63;;;3.95;;
31638;SDS011;18248;51.522;7.020;2022-08-02T06:33:24;6.68;;;3.30;;
31638;SDS011;18248;51.522;7.020;2022-08-02T06:36:37;9.02;;;3.15;;
31638;SDS011;18248;51.522;7.020;2022-08-02T06:39:47;11.00;;;3.10;;
31638;SDS011;18248;51.522;7.020;2022-08-02T06:46:10;9.27;;;3.20;;
31638;SDS011;18248;51.522;7.020;2022-08-02T06:49:08;8.93;;;3.35;;
31638;SDS011;18248;51.522;7.020;2022-08-02T06:52:07;12.48;;;3.83;;
31638;SDS011;18248;51.522;7.020;2022-08-02T06:55:07;9.98;;;4.18;;
31638;SDS011;18248;51.522;7.020;2022-08-02T06:58:06;10.82;;;4.50;;
31638;SDS011;18248;51.522;7.020;2022-08-02T07:01:04;10.07;;;3.60;;
31638;SDS011;18248;51.522;7.020;2022-08-02T07:04:04;11.45;;;3.28;;
31638;SDS011;18248;51.522;7.020;2022-08-02T07:07:02;11.60;;;3.28;;
31638;SDS011;18248;51.522;7.020;2022-08-02T07:10:01;10.35;;;3.63;;
31638;SDS011;18248;51.522;7.020;2022-08-02T07:13:00;10.40;;;3.53;;
31638;SDS011;18248;51.522;7.020;2022-08-02T07:15:59;11.73;;;3.40;;
31638;SDS011;18248;51.522;7.020;2022-08-02T07:19:00;18.10;;;3.97;;
31638;SDS011;18248;51.522;7.020;2022-08-02T07:21:58;10.35;;;3.00;;
31638;SDS011;18248;51.522;7.020;2022-08-02T07:24:57;14.27;;;4.38;;
31638;SDS011;18248;51.522;7.020;2022-08-02T07:27:56;10.50;;;3.30;;
31638;SDS011;18248;51.522;7.020;2022-08-02T07:30:55;9.55;;;2.95;;
31638;SDS011;18248;51.522;7.020;2022-08-02T07:33:54;8.07;;;2.72;;
31638;SDS011;18248;51.522;7.020;2022-08-02T07:36:52;7.90;;;2.55;;
31638;SDS011;18248;51.522;7.020;2022-08-02T07:39:53;9.20;;;2.58;;
31638;SDS011;18248;51.522;7.020;2022-08-02T07:42:53;5.13;;;2.22;;
31638;SDS011;18248;51.522;7.020;2022-08-02T07:45:53;9.95;;;2.80;;
31638;SDS011;18248;51.522;7.020;2022-08-02T07:48:52;5.88;;;2.25;;
31638;SDS011;18248;51.522;7.020;2022-08-02T07:51:51;10.60;;;2.50;;
31638;SDS011;18248;51.522;7.020;2022-08-02T07:54:50;11.05;;;2.67;;
31638;SDS011;18248;51.522;7.020;2022-08-02T07:57:48;5.93;;;2.17;;
31638;SDS011;18248;51.522;7.020;2022-08-02T08:00:47;7.80;;;2.30;;
31638;SDS011;18248;51.522;7.020;2022-08-02T08:03:46;6.95;;;2.08;;
31638;SDS011;18248;51.522;7.020;2022-08-02T08:06:47;4.82;;;1.90;;
31638;SDS011;18248;51.522;7.020;2022-08-02T08:09:50;7.50;;;2.20;;
31638;SDS011;18248;51.522;7.020;2022-08-02T08:12:49;6.43;;;2.00;;
31638;SDS011;18248;51.522;7.020;2022-08-02T08:15:47;5.82;;;1.90;;
31638;SDS011;18248;51.522;7.020;2022-08-02T08:18:46;8.32;;;2.08;;
31638;SDS011;18248;51.522;7.020;2022-08-02T08:21:44;7.75;;;2.00;;
31638;SDS011;18248;51.522;7.020;2022-08-02T08:24:43;6.13;;;1.67;;
31638;SDS011;18248;51.522;7.020;2022-08-02T08:27:51;4.88;;;1.67;;
31638;SDS011;18248;51.522;7.020;2022-08-02T08:30:49;6.22;;;1.70;;
31638;SDS011;18248;51.522;7.020;2022-08-02T08:33:48;4.18;;;1.27;;
31638;SDS011;18248;51.522;7.020;2022-08-02T08:36:47;3.03;;;1.20;;
31638;SDS011;18248;51.522;7.020;2022-08-02T08:39:45;2.45;;;1.27;;
31638;SDS011;18248;51.522;7.020;2022-08-02T08:42:44;2.72;;;0.95;;
31638;SDS011;18248;51.522;7.020;2022-08-02T08:45:43;5.90;;;1.10;;
31638;SDS011;18248;51.522;7.020;2022-08-02T08:48:42;4.95;;;1.20;;
31638;SDS011;18248;51.522;7.020;2022-08-02T08:51:46;4.53;;;1.15;;
31638;SDS011;18248;51.522;7.020;2022-08-02T08:54:46;3.83;;;1.35;;
31638;SDS011;18248;51.522;7.020;2022-08-02T08:57:45;3.33;;;1.48;;
31638;SDS011;18248;51.522;7.020;2022-08-02T09:00:44;3.53;;;1.25;;
31638;SDS011;18248;51.522;7.020;2022-08-02T09:03:44;3.88;;;1.40;;
31638;SDS011;18248;51.522;7.020;2022-08-02T09:06:43;7.63;;;1.55;;
31638;SDS011;18248;51.522;7.020;2022-08-02T09:09:42;4.55;;;1.27;;
31638;SDS011;18248;51.522;7.020;2022-08-02T09:12:40;4.35;;;1.70;;
31638;SDS011;18248;51.522;7.020;2022-08-02T09:15:39;4.55;;;1.80;;
31638;SDS011;18248;51.522;7.020;2022-08-02T09:18:42;7.72;;;1.80;;
31638;SDS011;18248;51.522;7.020;2022-08-02T09:21:42;3.88;;;1.77;;
31638;SDS011;18248;51.522;7.020;2022-08-02T09:24:45;3.35;;;1.48;;
31638;SDS011;18248;51.522;7.020;2022-08-02T09:27:46;2.22;;;1.58;;
31638;SDS011;18248;51.522;7.020;2022-08-02T09:30:45;4.13;;;1.73;;
31638;SDS011;18248;51.522;7.020;2022-08-02T09:36:51;3.28;;;1.63;;
31638;SDS011;18248;51.522;7.020;2022-08-02T09:39:50;3.92;;;2.00;;
31638;SDS011;18248;51.522;7.020;2022-08-02T09:42:58;5.82;;;2.33;;
31638;SDS011;18248;51.522;7.020;2022-08-02T09:45:56;9.07;;;2.00;;
31638;SDS011;18248;51.522;7.020;2022-08-02T09:48:56;6.22;;;2.53;;
31638;SDS011;18248;51.522;7.020;2022-08-02T09:51:59;9.17;;;2.67;;
31638;SDS011;18248;51.522;7.020;2022-08-02T09:55:03;3.53;;;1.90;;
31638;SDS011;18248;51.522;7.020;2022-08-02T09:58:18;4.85;;;2.13;;
31638;SDS011;18248;51.522;7.020;2022-08-02T10:01:20;7.15;;;2.67;;
31638;SDS011;18248;51.522;7.020;2022-08-02T10:04:28;6.15;;;2.40;;
31638;SDS011;18248;51.522;7.020;2022-08-02T10:07:28;8.02;;;2.70;;
31638;SDS011;18248;51.522;7.020;2022-08-02T10:10:29;4.28;;;2.40;;
31638;SDS011;18248;51.522;7.020;2022-08-02T10:13:32;6.30;;;2.10;;
31638;SDS011;18248;51.522;7.020;2022-08-02T10:16:33;5.55;;;2.50;;
31638;SDS011;18248;51.522;7.020;2022-08-02T10:19:33;5.07;;;2.30;;
31638;SDS011;18248;51.522;7.020;2022-08-02T10:22:32;4.43;;;2.25;;
31638;SDS011;18248;51.522;7.020;2022-08-02T10:25:32;5.68;;;2.65;;
31638;SDS011;18248;51.522;7.020;2022-08-02T10:28:36;7.60;;;2.13;;
31638;SDS011;18248;51.522;7.020;2022-08-02T10:31:48;7.32;;;2.78;;
31638;SDS011;18248;51.522;7.020;2022-08-02T10:34:54;7.22;;;2.28;;
31638;SDS011;18248;51.522;7.020;2022-08-02T10:41:00;6.28;;;1.92;;
31638;SDS011;18248;51.522;7.020;2022-08-02T10:43:59;4.53;;;2.42;;
31638;SDS011;18248;51.522;7.020;2022-08-02T10:50:12;6.88;;;2.28;;
31638;SDS011;18248;51.522;7.020;2022-08-02T10:56:44;6.10;;;2.15;;
31638;SDS011;18248;51.522;7.020;2022-08-02T10:59:44;4.28;;;2.60;;
31638;SDS011;18248;51.522;7.020;2022-08-02T11:02:43;3.67;;;1.98;;
31638;SDS011;18248;51.522;7.020;2022-08-02T11:05:43;11.50;;;2.55;;
31638;SDS011;18248;51.522;7.020;2022-08-02T11:12:29;4.78;;;2.00;;
31638;SDS011;18248;51.522;7.020;2022-08-02T11:15:28;10.13;;;2.10;;
31638;SDS011;18248;51.522;7.020;2022-08-02T11:22:04;4.60;;;2.00;;
31638;SDS011;18248;51.522;7.020;2022-08-02T11:28:24;4.43;;;1.70;;
31638;SDS011;18248;51.522;7.020;2022-08-02T11:31:23;6.55;;;1.50;;
31638;SDS011;18248;51.522;7.020;2022-08-02T11:34:23;6.07;;;2.03;;
31638;SDS011;18248;51.522;7.020;2022-08-02T11:37:26;5.47;;;1.73;;
31638;SDS011;18248;51.522;7.020;2022-08-02T11:40:25;4.57;;;1.80;;
31638;SDS011;18248;51.522;7.020;2022-08-02T11:43:35;6.13;;;2.08;;
31638;SDS011;18248;51.522;7.020;2022-08-02T11:46:35;4.03;;;1.65;;
31638;SDS011;18248;51.522;7.020;2022-08-02T11:49:35;7.65;;;1.70;;
31638;SDS011;18248;51.522;7.020;2022-08-02T11:52:34;6.82;;;1.90;;
31638;SDS011;18248;51.522;7.020;2022-08-02T11:55:34;9.05;;;2.05;;
31638;SDS011;18248;51.522;7.020;2022-08-02T11:58:32;4.18;;;1.50;;
31638;SDS011;18248;51.522;7.020;2022-08-02T12:01:31;8.05;;;1.88;;
31638;SDS011;18248;51.522;7.020;2022-08-02T12:04:31;3.53;;;1.40;;
31638;SDS011;18248;51.522;7.020;2022-08-02T12:07:31;4.25;;;1.50;;
31638;SDS011;18248;51.522;7.020;2022-08-02T12:10:31;5.00;;;1.77;;
31638;SDS011;18248;51.522;7.020;2022-08-02T12:13:42;4.32;;;1.52;;
31638;SDS011;18248;51.522;7.020;2022-08-02T12:16:41;4.57;;;1.50;;
31638;SDS011;18248;51.522;7.020;2022-08-02T12:20:03;4.53;;;1.85;;
31638;SDS011;18248;51.522;7.020;2022-08-02T12:23:03;5.38;;;2.03;;
31638;SDS011;18248;51.522;7.020;2022-08-02T12:26:05;3.42;;;1.58;;
31638;SDS011;18248;51.522;7.020;2022-08-02T12:29:06;3.83;;;1.60;;
31638;SDS011;18248;51.522;7.020;2022-08-02T12:32:05;3.22;;;1.70;;
31638;SDS011;18248;51.522;7.020;2022-08-02T12:35:14;3.13;;;1.58;;
31638;SDS011;18248;51.522;7.020;2022-08-02T12:38:14;4.88;;;1.60;;
31638;SDS011;18248;51.522;7.020;2022-08-02T12:41:13;5.15;;;1.83;;
31638;SDS011;18248;51.522;7.020;2022-08-02T12:44:15;8.07;;;1.80;;
31638;SDS011;18248;51.522;7.020;2022-08-02T12:47:14;10.80;;;1.70;;
31638;SDS011;18248;51.522;7.020;2022-08-02T12:56:29;3.40;;;1.65;;
31638;SDS011;18248;51.522;7.020;2022-08-02T12:59:33;2.42;;;1.40;;
31638;SDS011;18248;51.522;7.020;2022-08-02T13:02:36;3.60;;;1.40;;
31638;SDS011;18248;51.522;7.020;2022-08-02T13:05:36;5.38;;;1.60;;
31638;SDS011;18248;51.522;7.020;2022-08-02T13:08:34;4.35;;;1.58;;
31638;SDS011;18248;51.522;7.020;2022-08-02T13:11:33;4.55;;;1.55;;
31638;SDS011;18248;51.522;7.020;2022-08-02T13:14:32;4.55;;;1.70;;
31638;SDS011;18248;51.522;7.020;2022-08-02T13:17:31;5.47;;;1.50;;
31638;SDS011;18248;51.522;7.020;2022-08-02T13:20:30;4.80;;;1.83;;
31638;SDS011;18248;51.522;7.020;2022-08-02T13:23:29;3.05;;;1.35;;
31638;SDS011;18248;51.522;7.020;2022-08-02T13:26:27;3.78;;;1.33;;
31638;SDS011;18248;51.522;7.020;2022-08-02T13:29:26;3.55;;;1.40;;
31638;SDS011;18248;51.522;7.020;2022-08-02T13:32:25;5.85;;;1.60;;
31638;SDS011;18248;51.522;7.020;2022-08-02T13:35:25;3.85;;;1.40;;
31638;SDS011;18248;51.522;7.020;2022-08-02T13:38:25;4.38;;;1.67;;
31638;SDS011;18248;51.522;7.020;2022-08-02T13:41:23;7.18;;;1.88;;
31638;SDS011;18248;51.522;7.020;2022-08-02T13:44:22;5.32;;;1.88;;
31638;SDS011;18248;51.522;7.020;2022-08-02T13:47:21;4.20;;;1.40;;
31638;SDS011;18248;51.522;7.020;2022-08-02T13:50:19;5.55;;;1.58;;
31638;SDS011;18248;51.522;7.020;2022-08-02T13:53:18;5.70;;;1.35;;
31638;SDS011;18248;51.522;7.020;2022-08-02T13:56:16;3.17;;;1.65;;
31638;SDS011;18248;51.522;7.020;2022-08-02T13:59:15;2.22;;;1.35;;
31638;SDS011;18248;51.522;7.020;2022-08-02T14:02:14;3.95;;;1.75;;
31638;SDS011;18248;51.522;7.020;2022-08-02T14:05:12;4.75;;;1.30;;
31638;SDS011;18248;51.522;7.020;2022-08-02T14:08:11;5.75;;;1.58;;
31638;SDS011;18248;51.522;7.020;2022-08-02T14:11:11;5.53;;;1.50;;
31638;SDS011;18248;51.522;7.020;2022-08-02T14:14:09;2.38;;;1.27;;
31638;SDS011;18248;51.522;7.020;2022-08-02T14:17:08;3.15;;;1.55;;
31638;SDS011;18248;51.522;7.020;2022-08-02T14:20:08;4.90;;;1.35;;
31638;SDS011;18248;51.522;7.020;2022-08-02T14:23:07;2.78;;;1.48;;
31638;SDS011;18248;51.522;7.020;2022-08-02T14:26:05;5.53;;;1.55;;
31638;SDS011;18248;51.522;7.020;2022-08-02T14:29:06;2.55;;;1.05;;
31638;SDS011;18248;51.522;7.020;2022-08-02T14:32:05;3.63;;;1.00;;
31638;SDS011;18248;51.522;7.020;2022-08-02T14:35:04;6.20;;;1.15;;
31638;SDS011;18248;51.522;7.020;2022-08-02T14:38:03;5.85;;;1.40;;
31638;SDS011;18248;51.522;7.020;2022-08-02T14:41:03;3.28;;;1.75;;
31638;SDS011;18248;51.522;7.020;2022-08-02T14:44:03;4.10;;;1.30;;
31638;SDS011;18248;51.522;7.020;2022-08-02T14:47:05;4.68;;;1.40;;
31638;SDS011;18248;51.522;7.020;2022-08-02T14:50:03;2.40;;;1.23;;
31638;SDS011;18248;51.522;7.020;2022-08-02T14:53:02;3.72;;;1.42;;
31638;SDS011;18248;51.522;7.020;2022-08-02T14:56:00;1.63;;;1.17;;
31638;SDS011;18248;51.522;7.020;2022-08-02T14:58:59;2.47;;;1.40;;
31638;SDS011;18248;51.522;7.020;2022-08-02T15:01:58;7.30;;;1.60;;
31638;SDS011;18248;51.522;7.020;2022-08-02T15:04:58;4.68;;;2.25;;
31638;SDS011;18248;51.522;7.020;2022-08-02T15:07:57;3.67;;;1.42;;
31638;SDS011;18248;51.522;7.020;2022-08-02T15:10:56;3.22;;;1.70;;
31638;SDS011;18248;51.522;7.020;2022-08-02T15:13:55;6.80;;;1.80;;
31638;SDS011;18248;51.522;7.020;2022-08-02T15:16:56;5.05;;;1.70;;
31638;SDS011;18248;51.522;7.020;2022-08-02T15:19:55;4.05;;;1.50;;
31638;SDS011;18248;51.522;7.020;2022-08-02T15:22:54;2.83;;;1.52;;
31638;SDS011;18248;51.522;7.020;2022-08-02T15:25:52;5.57;;;1.25;;
31638;SDS011;18248;51.522;7.020;2022-08-02T15:28:51;2.90;;;1.30;;
31638;SDS011;18248;51.522;7.020;2022-08-02T15:31:50;4.05;;;1.70;;
31638;SDS011;18248;51.522;7.020;2022-08-02T15:34:48;3.35;;;1.40;;
31638;SDS011;18248;51.522;7.020;2022-08-02T15:37:47;3.63;;;1.70;;
31638;SDS011;18248;51.522;7.020;2022-08-02T15:40:46;3.03;;;1.10;;
31638;SDS011;18248;51.522;7.020;2022-08-02T15:43:44;4.70;;;1.20;;
31638;SDS011;18248;51.522;7.020;2022-08-02T15:46:43;2.88;;;1.45;;
31638;SDS011;18248;51.522;7.020;2022-08-02T15:49:44;4.18;;;1.08;;
31638;SDS011;18248;51.522;7.020;2022-08-02T15:52:44;1.73;;;1.00;;
31638;SDS011;18248;51.522;7.020;2022-08-02T15:55:42;5.72;;;1.10;;
31638;SDS011;18248;51.522;7.020;2022-08-02T15:58:42;1.80;;;1.20;;
31638;SDS011;18248;51.522;7.020;2022-08-02T16:01:41;5.10;;;1.00;;
31638;SDS011;18248;51.522;7.020;2022-08-02T16:04:40;2.67;;;1.00;;
31638;SDS011;18248;51.522;7.020;2022-08-02T16:07:39;4.65;;;0.95;;
31638;SDS011;18248;51.522;7.020;2022-08-02T16:10:37;3.40;;;1.10;;
31638;SDS011;18248;51.522;7.020;2022-08-02T16:13:36;1.58;;;0.93;;
31638;SDS011;18248;51.522;7.020;2022-08-02T16:16:48;2.10;;;1.00;;
31638;SDS011;18248;51.522;7.020;2022-08-02T16:19:46;1.13;;;0.90;;
31638;SDS011;18248;51.522;7.020;2022-08-02T16:22:45;3.30;;;0.93;;
31638;SDS011;18248;51.522;7.020;2022-08-02T16:25:43;6.43;;;0.90;;
31638;SDS011;18248;51.522;7.020;2022-08-02T16:28:42;1.58;;;0.95;;
31638;SDS011;18248;51.522;7.020;2022-08-02T16:31:41;3.88;;;1.40;;
31638;SDS011;18248;51.522;7.020;2022-08-02T16:34:39;9.07;;;1.40;;
31638;SDS011;18248;51.522;7.020;2022-08-02T16:37:38;3.13;;;1.30;;
31638;SDS011;18248;51.522;7.020;2022-08-02T16:40:36;1.92;;;1.30;;
31638;SDS011;18248;51.522;7.020;2022-08-02T16:43:35;7.18;;;1.60;;
31638;SDS011;18248;51.522;7.020;2022-08-02T16:46:33;5.10;;;1.25;;
31638;SDS011;18248;51.522;7.020;2022-08-02T16:49:32;7.10;;;1.40;;
31638;SDS011;18248;51.522;7.020;2022-08-02T16:52:31;6.15;;;1.60;;
31638;SDS011;18248;51.522;7.020;2022-08-02T16:55:29;2.30;;;1.10;;
31638;SDS011;18248;51.522;7.020;2022-08-02T16:58:28;7.28;;;1.10;;
31638;SDS011;18248;51.522;7.020;2022-08-02T17:01:27;3.42;;;1.52;;
31638;SDS011;18248;51.522;7.020;2022-08-02T17:04:25;2.50;;;1.25;;
31638;SDS011;18248;51.522;7.020;2022-08-02T17:07:24;2.50;;;1.48;;
31638;SDS011;18248;51.522;7.020;2022-08-02T17:10:22;9.10;;;1.55;;
31638;SDS011;18248;51.522;7.020;2022-08-02T17:13:22;8.82;;;1.27;;
31638;SDS011;18248;51.522;7.020;2022-08-02T17:16:21;6.20;;;1.60;;
31638;SDS011;18248;51.522;7.020;2022-08-02T17:19:19;3.17;;;1.67;;
31638;SDS011;18248;51.522;7.020;2022-08-02T17:22:18;3.30;;;1.30;;
31638;SDS011;18248;51.522;7.020;2022-08-02T17:25:16;4.95;;;1.27;;
31638;SDS011;18248;51.522;7.020;2022-08-02T17:28:16;4.47;;;1.40;;
31638;SDS011;18248;51.522;7.020;2022-08-02T17:31:15;7.07;;;1.92;;
31638;SDS011;18248;51.522;7.020;2022-08-02T17:34:13;3.45;;;1.20;;
31638;SDS011;18248;51.522;7.020;2022-08-02T17:37:12;4.63;;;1.30;;
31638;SDS011;18248;51.522;7.020;2022-08-02T17:40:11;2.97;;;1.20;;
31638;SDS011;18248;51.522;7.020;2022-08-02T17:43:09;2.15;;;0.98;;
31638;SDS011;18248;51.522;7.020;2022-08-02T17:46:08;2.88;;;1.30;;
31638;SDS011;18248;51.522;7.020;2022-08-02T17:49:08;3.28;;;1.30;;
31638;SDS011;18248;51.522;7.020;2022-08-02T17:52:13;8.18;;;1.23;;
31638;SDS011;18248;51.522;7.020;2022-08-02T17:55:12;8.50;;;1.60;;
31638;SDS011;18248;51.522;7.020;2022-08-02T17:58:11;3.10;;;1.33;;
31638;SDS011;18248;51.522;7.020;2022-08-02T18:01:10;2.70;;;1.02;;
31638;SDS011;18248;51.522;7.020;2022-08-02T18:04:08;3.88;;;1.10;;
31638;SDS011;18248;51.522;7.020;2022-08-02T18:07:07;2.63;;;1.17;;
31638;SDS011;18248;51.522;7.020;2022-08-02T18:10:06;2.20;;;1.10;;
31638;SDS011;18248;51.522;7.020;2022-08-02T18:13:05;2.00;;;0.90;;
31638;SDS011;18248;51.522;7.020;2022-08-02T18:16:03;4.72;;;1.40;;
31638;SDS011;18248;51.522;7.020;2022-08-02T18:19:02;5.30;;;0.90;;
31638;SDS011;18248;51.522;7.020;2022-08-02T18:22:01;4.05;;;1.08;;
31638;SDS011;18248;51.522;7.020;2022-08-02T18:25:00;4.03;;;1.10;;
31638;SDS011;18248;51.522;7.020;2022-08-02T18:27:59;3.85;;;1.10;;
31638;SDS011;18248;51.522;7.020;2022-08-02T18:30:57;3.90;;;1.20;;
31638;SDS011;18248;51.522;7.020;2022-08-02T18:33:56;5.57;;;1.20;;
31638;SDS011;18248;51.522;7.020;2022-08-02T18:36:59;6.38;;;1.40;;
31638;SDS011;18248;51.522;7.020;2022-08-02T18:39:57;9.10;;;1.40;;
31638;SDS011;18248;51.522;7.020;2022-08-02T18:42:56;4.03;;;1.30;;